• Join FlightAware (Why Join?)
  • Login
  • US Flag 
12:51PM EDT


 

Airport Tracker/Info


-or-


 

Live Flight TrackerFlight Track Log ✈ N8110C ✈ 20-Aug-2013 ✈ KIKW - KSBN

Flight Track Log - Related Links

Times and Time Zones

All times are in EDT time to prevent confusion due to time zone crossing. See the N8110C flight status page for this flight to view local times or setup timezone preferences in your user account.

Time Position Orientation Groundspeed Altitude Reporting Facility
EDT Latitude Longitude Course Direction KTS MPH feet Rate Location/Type
12:41PM 42.6442 -85.4111 218° Southwest 102 117 3,000  Level Chicago Center
12:42PM 42.6256 -85.4369 226° Southwest 97 112 3,000  Level Chicago Center
12:43PM 42.6025 -85.4667 224° Southwest 97 112 3,000  Level Chicago Center
12:44PM 42.5825 -85.4906 221° Southwest 96 110 3,000  Level Chicago Center
12:45PM 42.5603 -85.5133 217° Southwest 102 117 3,000  Level Chicago Center
12:46PM 42.4838 -85.5215 218° Southwest  Level Estimated
12:46PM 42.5378 -85.5350 215° Southwest 100 115 3,000  Level Chicago Center
12:47PM 42.5150 -85.5564 215° Southwest 100 115 3,000  Level Chicago Center
12:48PM 42.4944 -85.5789 219° Southwest 97 112 3,000  Level Chicago Center
12:49PM 42.4681 -85.6064 218° Southwest 98 113 3,000  Level Chicago Center
12:50PM 42.4472 -85.6314 222° Southwest 99 114 3,000 -60 Level Chicago Center
12:51PM 42.4261 -85.6553 220° Southwest 99 114 2,900  Descending Chicago Center
12:52PM 42.4078 -85.6836 229° Southwest 99 114 3,000  Climbing Chicago Center
12:53PM 42.3872 -85.7119 226° Southwest 103 119 2,900  Descending Chicago Center
12:54PM 42.3669 -85.7389 224° Southwest 103 119 3,000  Climbing Chicago Center
12:55PM 42.3467 -85.7639 222° Southwest 100 115 2,900  Descending Chicago Center
12:56PM 42.3239 -85.7961 226° Southwest 99 114 3,000  Climbing Chicago Center
12:57PM 42.3064 -85.8225 228° Southwest 96 110 3,000  Level Chicago Center
12:58PM 42.2886 -85.8517 231° Southwest 99 114 3,100  Climbing Chicago Center
12:59PM 42.2653 -85.8836 225° Southwest 105 121 3,000 -180 Descending Chicago Center
01:00PM 42.2428 -85.9108 222° Southwest 109 125 2,800 -60 Descending Chicago Center
01:02PM 42.2244 -85.9389 229° Southwest 104 120 2,900 120 Climbing Chicago Center
01:03PM 42.2089 -85.9658 232° Southwest 96 110 3,100  Climbing Chicago Center
01:04PM 42.1903 -85.9914 225° Southwest 94 108 2,900 -120 Descending Chicago Center
01:05PM 42.1700 -86.0261 232° Southwest 97 112 2,900  Level Chicago Center
01:06PM 42.1553 -86.0539 234° Southwest 94 108 2,900 60 Level Chicago Center
01:07PM 42.1422 -86.0825 238° Southwest 91 105 3,100 60 Climbing Chicago Center
01:08PM 42.1275 -86.1072 231° Southwest 87 100 3,100 -120 Level Chicago Center
01:09PM 42.1108 -86.1356 232° Southwest 93 107 2,900 -60 Descending Chicago Center
01:10PM 42.0872 -86.1631 221° Southwest 95 109 3,000 60 Climbing Chicago Center
01:11PM 42.0614 -86.1756 200° South 98 113 3,100 -60 Climbing Chicago Center
01:12PM 42.0331 -86.1850 194° South 102 117 2,900 -120 Descending Chicago Center
01:13PM 42.0089 -86.1967 200° South 98 113 2,900  Level Chicago Center
01:14PM 41.9864 -86.2056 196° South 91 105 2,900 60 Level Chicago Center
01:15PM 41.9639 -86.2133 194° South 87 100 3,100  Climbing Chicago Center
01:16PM 41.9336 -86.2261 197° South 90 104 3,000 -120 Descending Chicago Center
01:17PM 41.9083 -86.2433 207° Southwest 95 109 2,900 -120 Descending Chicago Center
01:18PM 41.8839 -86.2575 203° Southwest 96 110 2,800  Descending Chicago Center
01:19PM 41.8608 -86.2692 201° Southwest 94 108 2,900  Climbing Chicago Center
01:20PM 41.8375 -86.2806 200° South 91 105 2,900 -180 Level Chicago Center
01:21PM 41.8067 -86.2867 188° South 92 106 2,600 -300 Descending Chicago Center
01:22PM 41.7814 -86.2861 179° South 92 106 2,400 -300 Descending Chicago Center
01:23PM 41.7569 -86.2842 177° South 91 105 2,000 -360 Descending Chicago Center
01:24PM 41.7339 -86.2928 196° South 88 101 1,700 -300 Descending Chicago Center
01:25PM 41.7083 -86.2897 175° South 86 99 1,500 -240 Descending Chicago Center